createdAt,value
2022-11-29T03:56:29.508Z,93.51
2022-11-29T04:27:05.471Z,93.10
2022-11-29T04:57:14.097Z,94.32
2022-11-29T05:27:25.338Z,95.17
2022-11-29T05:57:34.809Z,95.18
2022-11-29T06:27:53.551Z,94.88
2022-11-29T06:58:04.973Z,94.44
2022-11-29T07:28:15.705Z,94.75
2022-11-29T07:58:20.345Z,94.97
2022-11-29T08:28:24.577Z,94.14
2022-11-29T08:58:28.869Z,93.64
2022-11-29T09:28:34.340Z,93.25
2022-11-29T09:58:44.493Z,92.98
2022-11-29T10:28:49.585Z,93.01
2022-11-29T10:59:02.998Z,93.56
2022-11-29T11:29:07.259Z,94.07
2022-11-29T11:59:18.610Z,93.11
2022-11-29T12:29:23.396Z,92.07
2022-11-29T12:59:39.495Z,89.10
2022-11-29T13:29:44.222Z,86.57
2022-11-29T13:59:50.908Z,85.96
2022-11-29T14:29:56.057Z,82.78
2022-11-29T15:00:00.506Z,84.89
2022-11-29T15:30:28.087Z,86.41
2022-11-29T16:00:33.960Z,87.99
2022-11-29T16:30:42.030Z,89.48
2022-11-29T17:00:46.249Z,91.86
2022-11-29T17:30:51.049Z,93.45
2022-11-29T18:00:55.657Z,93.00
2022-11-29T18:31:00.153Z,92.59
2022-11-29T19:01:09.765Z,91.73
2022-11-29T19:31:17.019Z,92.31
2022-11-29T20:01:23.264Z,91.96
2022-11-29T20:31:27.743Z,91.74
2022-11-29T21:01:32.198Z,92.74
2022-11-29T21:31:37.408Z,92.08
2022-11-29T22:01:41.761Z,91.42
2022-11-29T22:31:47.584Z,90.98
2022-11-29T23:01:52.099Z,90.49
2022-11-29T23:31:56.448Z,90.85
